Time;durP1;ratioP1;P1;durP2;ratioP2;P2;SDS_P1;SDS_P2;PMS_P1;PMS_P2;Temp;Humidity;BMP_temperature;BMP_pressure;BME280_temperature;BME280_humidity;BME280_pressure;Samples;Min_cycle;Max_cycle;Signal;HPM_P1;HPM_P2
2023/07/10 00:00:23;;;;;;;5.78;4.20;;;;;;;;;;7302380;19;141350;-76
2023/07/10 00:02:51;;;;;;;4.53;3.60;;;;;;;;;;7301647;19;141870;-76
2023/07/10 00:05:19;;;;;;;4.32;3.50;;;;;;;;;;7301221;19;140545;-75
2023/07/10 00:07:46;;;;;;;6.53;3.88;;;;;;;;;;7301029;19;140520;-75
2023/07/10 00:10:14;;;;;;;5.10;3.50;;;;;;;;;;7301146;19;142081;-75
2023/07/10 00:12:43;;;;;;;4.95;3.80;;;;;;;;;;7301510;19;141765;-75
2023/07/10 00:15:19;;;;;;;5.40;3.58;;;;;;;;;;7299839;19;140823;-76
2023/07/10 00:17:47;;;;;;;6.40;3.55;;;;;;;;;;7302807;19;140404;-76
2023/07/10 00:20:15;;;;;;;5.00;3.60;;;;;;;;;;7299693;19;141013;-75
2023/07/10 00:22:42;;;;;;;6.38;3.95;;;;;;;;;;7300143;19;141986;-75
2023/07/10 00:25:10;;;;;;;6.28;3.95;;;;;;;;;;7300852;19;140478;-75
2023/07/10 00:27:37;;;;;;;4.65;3.80;;;;;;;;;;7299931;19;140397;-75
2023/07/10 00:30:24;;;;;;;6.40;3.90;;;;;;;;;;7301409;19;141118;-76
2023/07/10 00:32:52;;;;;;;4.50;3.72;;;;;;;;;;7302048;19;140888;-76
2023/07/10 00:35:20;;;;;;;5.80;3.92;;;;;;;;;;7301536;19;140857;-75
2023/07/10 00:37:49;;;;;;;5.32;3.72;;;;;;;;;;7302129;19;140556;-75
2023/07/10 00:40:18;;;;;;;4.78;3.45;;;;;;;;;;7301950;19;141155;-76
2023/07/10 00:42:46;;;;;;;7.18;3.80;;;;;;;;;;7300711;19;142685;-76
2023/07/10 00:45:15;;;;;;;5.07;3.47;;;;;;;;;;7302056;19;140623;-76
2023/07/10 00:47:45;;;;;;;5.00;3.58;;;;;;;;;;7300869;19;141062;-75
2023/07/10 00:50:26;;;;;;;5.43;3.92;;;;;;;;;;7301017;19;141900;-75
2023/07/10 00:52:54;;;;;;;4.53;3.53;;;;;;;;;;7300631;19;141858;-75
2023/07/10 00:55:25;;;;;;;4.93;3.65;;;;;;;;;;7300417;19;140502;-74
2023/07/10 00:57:55;;;;;;;6.65;4.03;;;;;;;;;;7299961;19;140769;-74
2023/07/10 01:00:23;;;;;;;4.75;3.42;;;;;;;;;;7299835;19;141858;-74
2023/07/10 01:02:51;;;;;;;5.55;3.50;;;;;;;;;;7299821;19;142153;-74
2023/07/10 01:05:18;;;;;;;3.70;3.05;;;;;;;;;;7299655;19;140630;-74
2023/07/10 01:07:48;;;;;;;5.40;3.33;;;;;;;;;;7300076;19;140633;-74
2023/07/10 01:10:14;;;;;;;5.03;3.45;;;;;;;;;;7300067;19;141787;-74
2023/07/10 01:12:43;;;;;;;6.10;3.28;;;;;;;;;;7297769;19;141837;-74
2023/07/10 01:15:11;;;;;;;5.57;3.70;;;;;;;;;;7299967;19;140743;-75
2023/07/10 01:17:39;;;;;;;5.57;3.42;;;;;;;;;;7299770;19;140711;-74
2023/07/10 01:20:24;;;;;;;3.50;3.13;;;;;;;;;;7299586;19;140947;-74
2023/07/10 01:22:51;;;;;;;5.07;3.30;;;;;;;;;;7301405;19;141859;-74
2023/07/10 01:25:18;;;;;;;4.68;3.05;;;;;;;;;;7306463;19;140609;-74
2023/07/10 01:27:45;;;;;;;4.45;3.30;;;;;;;;;;7306902;19;140498;-74
2023/07/10 01:30:26;;;;;;;5.47;3.30;;;;;;;;;;7306323;19;141991;-74
2023/07/10 01:32:54;;;;;;;6.18;3.20;;;;;;;;;;7306065;19;141825;-75
2023/07/10 01:35:22;;;;;;;6.07;3.10;;;;;;;;;;7305741;19;140692;-74
2023/07/10 01:37:49;;;;;;;3.88;2.95;;;;;;;;;;7305659;19;140380;-74
2023/07/10 01:40:19;;;;;;;6.32;3.08;;;;;;;;;;7305395;19;141057;-75
2023/07/10 01:42:46;;;;;;;;;;;;;;;;;;7306464;19;140689;-75
2023/07/10 01:45:13;;;;;;;4.28;2.80;;;;;;;;;;7305661;19;140449;-74
2023/07/10 01:47:41;;;;;;;5.07;3.00;;;;;;;;;;7304403;19;140486;-75
2023/07/10 01:50:09;;;;;;;5.55;3.20;;;;;;;;;;7305007;19;141180;-74
2023/07/10 01:52:36;;;;;;;5.03;2.85;;;;;;;;;;7305214;19;141742;-75
2023/07/10 01:55:03;;;;;;;3.47;2.97;;;;;;;;;;7305230;19;140594;-74
2023/07/10 01:57:30;;;;;;;3.50;2.50;;;;;;;;;;7304922;19;140628;-74
2023/07/10 01:59:58;;;;;;;6.88;2.83;;;;;;;;;;7305203;19;140509;-76
2023/07/10 02:02:24;;;;;;;4.28;2.67;;;;;;;;;;7306993;19;142889;-77
2023/07/10 02:04:53;;;;;;;3.67;2.75;;;;;;;;;;7307486;19;140528;-75
2023/07/10 02:07:20;;;;;;;5.25;2.65;;;;;;;;;;7307010;19;140476;-75
2023/07/10 02:09:47;;;;;;;5.57;2.80;;;;;;;;;;7306474;19;141688;-75
2023/07/10 02:12:14;;;;;;;3.22;2.50;;;;;;;;;;7305632;19;141889;-75
2023/07/10 02:14:41;;;;;;;4.70;2.55;;;;;;;;;;7306528;19;140403;-74
2023/07/10 02:17:08;;;;;;;4.80;2.55;;;;;;;;;;7305952;19;140672;-75
2023/07/10 02:19:35;;;;;;;5.28;2.47;;;;;;;;;;7306007;19;141434;-76
2023/07/10 02:22:03;;;;;;;3.35;2.10;;;;;;;;;;7306687;19;140988;-76
2023/07/10 02:24:30;;;;;;;5.47;2.50;;;;;;;;;;7306349;19;140456;-75
2023/07/10 02:26:57;;;;;;;4.25;2.40;;;;;;;;;;7305029;19;140918;-75
2023/07/10 02:29:24;;;;;;;4.60;2.40;;;;;;;;;;7305260;19;141157;-74
2023/07/10 02:31:51;;;;;;;3.78;2.20;;;;;;;;;;7306121;19;142571;-75
2023/07/10 02:34:18;;;;;;;4.28;2.45;;;;;;;;;;7305595;19;140711;-75
2023/07/10 02:36:46;;;;;;;4.15;2.40;;;;;;;;;;7305492;19;140690;-75
2023/07/10 02:39:13;;;;;;;5.13;2.47;;;;;;;;;;7304158;19;140469;-75
2023/07/10 02:41:40;;;;;;;4.20;2.10;;;;;;;;;;7303228;19;141376;-75
2023/07/10 02:44:07;;;;;;;4.82;2.42;;;;;;;;;;7303497;19;140646;-75
2023/07/10 02:46:34;;;;;;;4.90;2.60;;;;;;;;;;7303947;19;140458;-75
2023/07/10 02:49:01;;;;;;;4.68;2.28;;;;;;;;;;7302806;19;140965;-75
2023/07/10 02:51:28;;;;;;;4.80;2.45;;;;;;;;;;7303773;19;140817;-75
2023/07/10 02:53:55;;;;;;;3.47;2.20;;;;;;;;;;7304382;19;140542;-75
2023/07/10 02:56:22;;;;;;;4.10;2.28;;;;;;;;;;7304755;19;140630;-75
2023/07/10 02:58:50;;;;;;;5.70;2.60;;;;;;;;;;7303948;19;140991;-75
2023/07/10 03:01:17;;;;;;;4.10;1.85;;;;;;;;;;7303371;19;142798;-74
2023/07/10 03:03:45;;;;;;;3.13;2.05;;;;;;;;;;7304114;19;140403;-75
2023/07/10 03:06:12;;;;;;;2.85;1.90;;;;;;;;;;7304369;19;140661;-74
2023/07/10 03:08:40;;;;;;;3.67;2.00;;;;;;;;;;7303768;19;141354;-76
2023/07/10 03:11:09;;;;;;;3.63;2.40;;;;;;;;;;7303060;19;141325;-76
2023/07/10 03:13:36;;;;;;;3.22;2.10;;;;;;;;;;7303106;19;141554;-76
2023/07/10 03:16:05;;;;;;;3.40;2.15;;;;;;;;;;7302516;19;140652;-76
2023/07/10 03:18:33;;;;;;;4.38;2.08;;;;;;;;;;7302194;19;141191;-74
2023/07/10 03:21:00;;;;;;;4.07;2.20;;;;;;;;;;7302464;19;142813;-74
2023/07/10 03:23:27;;;;;;;6.25;2.10;;;;;;;;;;7302159;19;140773;-73
2023/07/10 03:25:54;;;;;;;3.80;2.05;;;;;;;;;;7302835;19;140687;-74
2023/07/10 03:28:21;;;;;;;3.60;2.25;;;;;;;;;;7301992;19;140812;-74
2023/07/10 03:30:48;;;;;;;4.13;2.38;;;;;;;;;;7301778;19;142138;-75
2023/07/10 03:33:17;;;;;;;4.18;2.03;;;;;;;;;;7302503;19;140449;-75
2023/07/10 03:35:48;;;;;;;4.10;2.42;;;;;;;;;;7301982;19;140570;-75
2023/07/10 03:38:16;;;;;;;4.35;2.10;;;;;;;;;;7301878;19;141777;-75
2023/07/10 03:40:50;;;;;;;3.25;2.10;;;;;;;;;;7302094;19;141899;-75
2023/07/10 03:43:17;;;;;;;5.20;2.17;;;;;;;;;;7301140;19;140529;-75
2023/07/10 03:45:44;;;;;;;3.10;1.80;;;;;;;;;;7301790;19;140958;-74
2023/07/10 03:48:11;;;;;;;2.75;1.95;;;;;;;;;;7302855;19;142202;-74
2023/07/10 03:50:39;;;;;;;4.43;2.30;;;;;;;;;;7301963;19;142824;-74
2023/07/10 03:53:06;;;;;;;3.65;2.15;;;;;;;;;;7302612;19;140373;-74
2023/07/10 03:55:32;;;;;;;3.38;2.20;;;;;;;;;;7302596;19;140505;-74
2023/07/10 03:57:59;;;;;;;4.43;2.40;;;;;;;;;;7301232;19;141579;-74
2023/07/10 04:00:26;;;;;;;3.55;2.00;;;;;;;;;;7302224;19;141994;-74
2023/07/10 04:02:53;;;;;;;3.13;2.13;;;;;;;;;;7302819;19;140667;-74
2023/07/10 04:05:24;;;;;;;5.68;1.92;;;;;;;;;;7301461;19;140540;-74
2023/07/10 04:07:51;;;;;;;3.20;2.17;;;;;;;;;;7302182;19;140954;-74
2023/07/10 04:10:18;;;;;;;4.78;2.35;;;;;;;;;;7302100;19;142107;-75
2023/07/10 04:12:45;;;;;;;4.90;2.35;;;;;;;;;;7303414;19;140687;-76
2023/07/10 04:15:12;;;;;;;3.65;2.22;;;;;;;;;;7300460;19;140751;-76
2023/07/10 04:17:39;;;;;;;4.32;2.60;;;;;;;;;;7299391;19;142010;-74
2023/07/10 04:20:06;;;;;;;4.00;2.53;;;;;;;;;;7300707;19;142960;-74
2023/07/10 04:22:33;;;;;;;5.72;2.85;;;;;;;;;;7299770;19;140534;-74
2023/07/10 04:25:05;;;;;;;3.75;2.53;;;;;;;;;;7300659;19;140769;-73
2023/07/10 04:27:32;;;;;;;4.75;2.60;;;;;;;;;;7301806;19;141169;-76
2023/07/10 04:29:59;;;;;;;4.20;3.08;;;;;;;;;;7302995;19;141167;-75
2023/07/10 04:32:27;;;;;;;4.32;2.55;;;;;;;;;;7301149;19;140527;-76
2023/07/10 04:34:54;;;;;;;4.03;2.85;;;;;;;;;;7301947;19;140729;-75
2023/07/10 04:37:21;;;;;;;4.25;2.80;;;;;;;;;;7301138;19;141745;-76
2023/07/10 04:39:48;;;;;;;4.45;3.00;;;;;;;;;;7301427;19;140864;-75
2023/07/10 04:42:14;;;;;;;5.07;2.85;;;;;;;;;;7302408;19;140481;-76
2023/07/10 04:44:42;;;;;;;3.55;2.55;;;;;;;;;;7301193;19;140739;-73
2023/07/10 04:47:10;;;;;;;5.05;3.15;;;;;;;;;;7301626;19;140980;-76
2023/07/10 04:49:37;;;;;;;4.25;2.80;;;;;;;;;;7301917;19;141851;-76
2023/07/10 04:52:04;;;;;;;3.95;2.95;;;;;;;;;;7302287;19;140605;-75
2023/07/10 04:54:31;;;;;;;5.18;3.25;;;;;;;;;;7303787;19;140811;-73
2023/07/10 04:56:58;;;;;;;3.92;3.15;;;;;;;;;;7302076;19;141398;-76
2023/07/10 04:59:25;;;;;;;5.60;3.60;;;;;;;;;;7307570;19;142512;-76
2023/07/10 05:01:53;;;;;;;5.07;3.00;;;;;;;;;;7309046;19;140485;-76
2023/07/10 05:04:20;;;;;;;5.28;3.13;;;;;;;;;;7309853;19;140439;-74
2023/07/10 05:06:47;;;;;;;5.30;3.15;;;;;;;;;;7308492;19;140966;-74
2023/07/10 05:09:14;;;;;;;5.57;3.30;;;;;;;;;;7307887;19;142477;-72
2023/07/10 05:11:41;;;;;;;5.57;3.40;;;;;;;;;;7306895;19;140847;-74
2023/07/10 05:14:08;;;;;;;4.85;3.25;;;;;;;;;;7307762;19;140565;-71
2023/07/10 05:16:35;;;;;;;3.92;3.13;;;;;;;;;;7309339;19;140515;-76
2023/07/10 05:19:02;;;;;;;4.28;3.00;;;;;;;;;;7309313;19;142048;-76
2023/07/10 05:21:30;;;;;;;4.65;3.28;;;;;;;;;;7308547;19;140643;-75
2023/07/10 05:23:57;;;;;;;4.65;3.20;;;;;;;;;;7308126;19;140678;-76
2023/07/10 05:26:25;;;;;;;4.78;3.13;;;;;;;;;;7309689;19;140532;-75
2023/07/10 05:28:52;;;;;;;3.78;2.63;;;;;;;;;;7308018;19;142094;-75
2023/07/10 05:31:19;;;;;;;4.32;3.20;;;;;;;;;;7309479;19;140657;-75
2023/07/10 05:33:47;;;;;;;3.85;2.70;;;;;;;;;;7309452;19;140457;-74
2023/07/10 05:36:16;;;;;;;4.78;2.88;;;;;;;;;;7308847;19;140399;-75
2023/07/10 05:38:48;;;;;;;5.10;2.92;;;;;;;;;;7309408;19;142711;-75
2023/07/10 05:41:16;;;;;;;5.07;2.92;;;;;;;;;;7308386;19;140776;-75
2023/07/10 05:43:43;;;;;;;4.10;2.60;;;;;;;;;;7307861;19;140581;-75
2023/07/10 05:46:12;;;;;;;3.42;2.50;;;;;;;;;;7308579;19;140824;-75
2023/07/10 05:48:40;;;;;;;2.70;2.40;;;;;;;;;;7308508;19;142403;-75
2023/07/10 05:51:07;;;;;;;3.92;2.50;;;;;;;;;;7307103;19;140463;-76
2023/07/10 05:53:34;;;;;;;3.42;2.65;;;;;;;;;;7307635;19;140716;-75
2023/07/10 05:56:05;;;;;;;3.60;2.40;;;;;;;;;;7309469;19;141982;-75
2023/07/10 05:58:36;;;;;;;3.13;2.45;;;;;;;;;;7308916;19;140767;-75
2023/07/10 06:01:03;;;;;;;4.40;2.42;;;;;;;;;;7308852;19;140578;-76
2023/07/10 06:04:14;;;;;;;3.30;2.20;;;;;;;;;;7309108;19;140401;-76
2023/07/10 06:06:42;;;;;;;4.68;2.25;;;;;;;;;;7303174;19;141163;-75
2023/07/10 06:09:09;;;;;;;2.40;2.20;;;;;;;;;;7306102;19;140670;-75
2023/07/10 06:11:36;;;;;;;3.03;2.30;;;;;;;;;;7307393;19;140341;-75
2023/07/10 06:14:03;;;;;;;3.08;2.08;;;;;;;;;;7308148;19;140685;-75
2023/07/10 06:16:30;;;;;;;4.85;2.25;;;;;;;;;;7307342;19;140881;-75
2023/07/10 06:18:58;;;;;;;2.83;2.53;;;;;;;;;;7307885;19;142084;-74
2023/07/10 06:21:25;;;;;;;2.70;2.40;;;;;;;;;;7309190;19;140760;-76
2023/07/10 06:23:52;;;;;;;3.90;2.85;;;;;;;;;;7308384;19;140549;-75
2023/07/10 06:26:19;;;;;;;3.75;2.42;;;;;;;;;;7307770;19;141558;-76
2023/07/10 06:28:46;;;;;;;3.22;2.55;;;;;;;;;;7305105;19;141909;-76
2023/07/10 06:31:13;;;;;;;4.75;2.65;;;;;;;;;;7305903;19;140527;-75
2023/07/10 06:33:41;;;;;;;4.18;2.78;;;;;;;;;;7308166;19;140494;-75
2023/07/10 06:36:09;;;;;;;2.72;2.17;;;;;;;;;;7307616;19;140553;-75
2023/07/10 06:38:36;;;;;;;3.33;2.22;;;;;;;;;;7306111;19;141917;-76
2023/07/10 06:41:05;;;;;;;3.70;2.70;;;;;;;;;;7304829;19;142486;-76
2023/07/10 06:43:33;;;;;;;3.58;2.70;;;;;;;;;;7303841;19;140409;-75
2023/07/10 06:46:00;;;;;;;2.65;2.40;;;;;;;;;;7302639;19;141205;-76
2023/07/10 06:48:28;;;;;;;3.08;2.50;;;;;;;;;;7303417;19;141481;-76
2023/07/10 06:50:55;;;;;;;2.80;2.28;;;;;;;;;;7304000;19;140882;-76
2023/07/10 06:53:23;;;;;;;2.72;2.10;;;;;;;;;;7303793;19;140755;-75
2023/07/10 06:55:58;;;;;;;4.60;2.40;;;;;;;;;;7302867;19;140751;-76
2023/07/10 06:58:25;;;;;;;2.60;2.38;;;;;;;;;;7303578;19;142673;-75
2023/07/10 07:00:52;;;;;;;2.40;2.10;;;;;;;;;;7302706;19;140681;-75
2023/07/10 07:03:20;;;;;;;3.20;2.20;;;;;;;;;;7302984;19;140596;-76
2023/07/10 07:05:51;;;;;;;3.47;2.30;;;;;;;;;;7302806;19;140734;-75
2023/07/10 07:08:19;;;;;;;3.55;2.50;;;;;;;;;;7302675;19;142668;-75
2023/07/10 07:10:48;;;;;;;3.05;2.38;;;;;;;;;;7301072;19;140880;-76
2023/07/10 07:13:15;;;;;;;3.83;2.45;;;;;;;;;;7302925;19;140544;-76
2023/07/10 07:15:50;;;;;;;2.60;2.25;;;;;;;;;;7301659;19;140944;-75
2023/07/10 07:18:21;;;;;;;3.13;2.42;;;;;;;;;;7305268;19;141884;-77
2023/07/10 07:20:49;;;;;;;3.50;2.38;;;;;;;;;;7309008;19;140740;-76
2023/07/10 07:23:16;;;;;;;3.03;2.67;;;;;;;;;;7305612;19;140496;-76
2023/07/10 07:25:43;;;;;;;3.13;2.72;;;;;;;;;;7304717;19;141058;-75
2023/07/10 07:28:11;;;;;;;3.35;2.42;;;;;;;;;;7304425;19;142733;-76
2023/07/10 07:30:39;;;;;;;2.70;2.22;;;;;;;;;;7305517;19;140495;-75
2023/07/10 07:33:07;;;;;;;3.38;2.63;;;;;;;;;;7305357;19;140629;-75
2023/07/10 07:35:36;;;;;;;3.75;2.30;;;;;;;;;;7305145;19;141256;-75
2023/07/10 07:38:03;;;;;;;5.35;2.80;;;;;;;;;;7305463;19;142374;-76
2023/07/10 07:40:31;;;;;;;4.20;2.75;;;;;;;;;;7303905;19;140806;-76
2023/07/10 07:42:58;;;;;;;4.80;2.35;;;;;;;;;;7301487;19;140530;-76
2023/07/10 07:45:25;;;;;;;3.17;2.75;;;;;;;;;;7300679;19;141107;-75
2023/07/10 07:47:52;;;;;;;3.38;2.42;;;;;;;;;;7301506;19;141908;-76
2023/07/10 07:50:20;;;;;;;3.17;2.35;;;;;;;;;;7301502;19;140823;-75
2023/07/10 07:52:47;;;;;;;5.22;2.50;;;;;;;;;;7302005;19;140418;-76
2023/07/10 07:55:14;;;;;;;4.38;2.47;;;;;;;;;;7301673;19;141809;-77
2023/07/10 07:57:42;;;;;;;3.92;2.75;;;;;;;;;;7302341;19;140705;-77
2023/07/10 08:00:10;;;;;;;3.97;2.83;;;;;;;;;;7305958;19;140382;-76
2023/07/10 08:02:37;;;;;;;3.08;2.30;;;;;;;;;;7302433;19;140539;-76
2023/07/10 08:05:07;;;;;;;3.53;2.55;;;;;;;;;;7302607;19;141910;-75
2023/07/10 08:07:47;;;;;;;3.10;2.45;;;;;;;;;;7303356;19;141477;-75
2023/07/10 08:10:14;;;;;;;3.25;2.50;;;;;;;;;;7301644;19;140435;-77
2023/07/10 08:12:42;;;;;;;3.28;2.60;;;;;;;;;;7302279;19;140395;-76
2023/07/10 08:15:09;;;;;;;3.15;2.40;;;;;;;;;;7301567;19;141059;-78
2023/07/10 08:17:36;;;;;;;3.83;2.47;;;;;;;;;;7300855;19;140848;-79
2023/07/10 08:20:07;;;;;;;4.47;2.95;;;;;;;;;;7302019;19;140817;-80
2023/07/10 08:22:34;;;;;;;2.80;2.30;;;;;;;;;;7301604;19;140397;-79
2023/07/10 08:25:01;;;;;;;2.67;2.03;;;;;;;;;;7300014;19;141748;-77
2023/07/10 08:27:28;;;;;;;5.00;2.13;;;;;;;;;;7300024;19;142152;-79
2023/07/10 08:29:55;;;;;;;3.22;2.42;;;;;;;;;;7300206;19;140459;-76
2023/07/10 08:32:23;;;;;;;2.33;2.10;;;;;;;;;;7303927;19;140443;-79
2023/07/10 08:34:50;;;;;;;3.05;2.30;;;;;;;;;;7307722;19;141698;-79
2023/07/10 08:37:17;;;;;;;3.05;2.15;;;;;;;;;;7311774;19;141569;-78
2023/07/10 08:39:45;;;;;;;3.47;2.05;;;;;;;;;;7307430;19;140406;-78
2023/07/10 08:42:18;;;;;;;2.28;1.92;;;;;;;;;;7310153;19;140770;-78
2023/07/10 08:44:47;;;;;;;3.80;2.30;;;;;;;;;;7308507;19;140392;-79
2023/07/10 08:47:17;;;;;;;3.25;2.45;;;;;;;;;;7307984;19;141281;-79
2023/07/10 08:50:07;;;;;;;2.83;2.03;;;;;;;;;;7308393;19;140541;-79
2023/07/10 08:52:34;;;;;;;4.82;2.28;;;;;;;;;;7307118;19;140429;-77
2023/07/10 08:55:01;;;;;;;2.97;2.20;;;;;;;;;;7306749;19;141018;-75
2023/07/10 08:57:31;;;;;;;3.08;2.20;;;;;;;;;;7306943;19;142985;-80
2023/07/10 08:59:58;;;;;;;2.37;2.00;;;;;;;;;;7306361;19;140557;-81
2023/07/10 09:02:36;;;;;;;2.95;1.92;;;;;;;;;;7307334;19;140700;-77
2023/07/10 09:05:07;;;;;;;3.25;1.75;;;;;;;;;;7307068;19;140591;-82
2023/07/10 09:07:37;;;;;;;16.65;4.63;;;;;;;;;;7306733;19;142496;-78
2023/07/10 09:10:06;;;;;;;24.73;6.00;;;;;;;;;;7306563;19;140473;-77
2023/07/10 09:12:33;;;;;;;27.25;6.55;;;;;;;;;;7306763;19;140399;-76
2023/07/10 09:15:03;;;;;;;32.45;7.00;;;;;;;;;;7305532;19;141473;-77
2023/07/10 09:17:36;;;;;;;29.40;6.50;;;;;;;;;;7306501;19;142628;-78
2023/07/10 09:20:05;;;;;;;26.08;7.03;;;;;;;;;;7307028;19;140620;-79
2023/07/10 09:22:33;;;;;;;35.95;7.47;;;;;;;;;;7306801;19;140732;-77
2023/07/10 09:25:00;;;;;;;27.23;7.15;;;;;;;;;;7306103;19;141025;-76
2023/07/10 09:27:29;;;;;;;33.60;7.72;;;;;;;;;;7306573;19;143109;-76
2023/07/10 09:29:56;;;;;;;25.75;7.30;;;;;;;;;;7306330;19;140429;-76
2023/07/10 09:32:23;;;;;;;35.55;8.15;;;;;;;;;;7306931;19;140434;-78
2023/07/10 09:34:58;;;;;;;33.47;7.47;;;;;;;;;;7305968;19;142228;-76
2023/07/10 09:37:34;;;;;;;28.17;7.93;;;;;;;;;;7306335;19;142348;-77
2023/07/10 09:40:24;;;;;;;34.50;8.55;;;;;;;;;;7307287;19;140662;-77
2023/07/10 09:42:51;;;;;;;29.67;7.45;;;;;;;;;;7305588;19;140445;-76
2023/07/10 09:45:19;;;;;;;25.88;7.30;;;;;;;;;;7304367;19;140502;-75
2023/07/10 09:47:50;;;;;;;23.73;7.60;;;;;;;;;;7305410;19;142547;-75
2023/07/10 09:50:18;;;;;;;31.52;8.02;;;;;;;;;;7305597;19;140404;-76
2023/07/10 09:52:51;;;;;;;26.63;7.60;;;;;;;;;;7305948;19;140711;-76
2023/07/10 09:55:18;;;;;;;26.88;7.60;;;;;;;;;;7305036;19;140523;-78
2023/07/10 09:57:52;;;;;;;26.38;7.10;;;;;;;;;;7305372;19;141214;-76
2023/07/10 10:00:19;;;;;;;25.52;6.72;;;;;;;;;;7305141;19;141174;-75
2023/07/10 10:02:48;;;;;;;22.77;7.40;;;;;;;;;;7304873;19;140706;-77
2023/07/10 10:05:19;;;;;;;28.60;7.80;;;;;;;;;;7304583;19;140601;-77
2023/07/10 10:07:47;;;;;;;27.80;7.10;;;;;;;;;;7304613;19;142069;-76
2023/07/10 10:10:18;;;;;;;28.83;7.15;;;;;;;;;;7305050;19;140439;-76
2023/07/10 10:12:57;;;;;;;27.80;6.43;;;;;;;;;;7305318;19;140660;-77
2023/07/10 10:15:43;;;;;;;23.20;6.68;;;;;;;;;;7303628;19;141282;-77
2023/07/10 10:18:31;;;;;;;27.35;6.72;;;;;;;;;;7307441;19;140590;-77
2023/07/10 10:21:00;;;;;;;22.15;7.10;;;;;;;;;;7305429;19;140454;-76
2023/07/10 10:23:31;;;;;;;22.38;6.75;;;;;;;;;;7304224;19;140554;-77
2023/07/10 10:26:06;;;;;;;26.40;7.22;;;;;;;;;;7302733;19;142192;-77
2023/07/10 10:28:52;;;;;;;20.63;6.40;;;;;;;;;;7304351;19;142523;-77
2023/07/10 10:31:22;;;;;;;21.00;6.05;;;;;;;;;;7303510;19;140789;-76
2023/07/10 10:33:54;;;;;;;17.88;6.40;;;;;;;;;;7304437;19;140835;-76
2023/07/10 10:36:25;;;;;;;18.73;5.75;;;;;;;;;;7304406;19;141570;-77
2023/07/10 10:38:52;;;;;;;;;;;;;;;;;;7304577;19;141109;-77
2023/07/10 10:41:19;;;;;;;18.25;5.72;;;;;;;;;;7304260;19;140332;-76
2023/07/10 10:43:49;;;;;;;18.88;5.88;;;;;;;;;;7304146;19;140499;-76
2023/07/10 10:46:16;;;;;;;15.47;5.60;;;;;;;;;;7303141;19;141328;-75
2023/07/10 10:48:49;;;;;;;16.27;5.78;;;;;;;;;;7303568;19;140707;-77
2023/07/10 10:51:25;;;;;;;20.00;5.95;;;;;;;;;;7303721;19;140511;-76
2023/07/10 10:53:57;;;;;;;17.85;5.50;;;;;;;;;;7304138;19;140440;-76
2023/07/10 10:56:28;;;;;;;20.38;5.95;;;;;;;;;;7300314;19;141332;-75
2023/07/10 10:58:58;;;;;;;16.30;5.32;;;;;;;;;;7302885;19;142951;-75
2023/07/10 11:01:44;;;;;;;17.10;5.45;;;;;;;;;;7303115;19;140486;-76
2023/07/10 11:04:17;;;;;;;18.17;5.38;;;;;;;;;;7303573;19;140607;-75
2023/07/10 11:06:44;;;;;;;17.60;5.78;;;;;;;;;;7302888;19;141038;-75
2023/07/10 11:09:18;;;;;;;17.05;5.40;;;;;;;;;;7303071;19;142347;-75
2023/07/10 11:11:46;;;;;;;15.43;5.68;;;;;;;;;;7306547;19;140386;-75
2023/07/10 11:14:13;;;;;;;14.07;5.18;;;;;;;;;;7303004;19;141388;-77
2023/07/10 11:16:40;;;;;;;14.40;5.30;;;;;;;;;;7301837;19;141015;-77
2023/07/10 11:19:11;;;;;;;17.20;5.45;;;;;;;;;;7302462;19;142199;-77
2023/07/10 11:21:39;;;;;;;17.00;5.32;;;;;;;;;;7303163;19;140629;-76
2023/07/10 11:24:13;;;;;;;14.57;5.07;;;;;;;;;;7302833;19;140641;-76
2023/07/10 11:26:40;;;;;;;17.17;5.10;;;;;;;;;;7302464;19;141717;-76
2023/07/10 11:29:37;;;;;;;15.90;5.18;;;;;;;;;;7302720;19;140864;-75
2023/07/10 11:32:16;;;;;;;13.55;4.75;;;;;;;;;;7300551;19;140779;-75
2023/07/10 11:34:47;;;;;;;12.70;4.80;;;;;;;;;;7301982;19;140455;-75
2023/07/10 11:37:33;;;;;;;13.23;5.00;;;;;;;;;;7302817;19;141122;-75
2023/07/10 11:40:23;;;;;;;12.60;4.70;;;;;;;;;;7302928;19;141074;-75
2023/07/10 11:42:51;;;;;;;12.48;4.43;;;;;;;;;;7301084;19;140465;-76
2023/07/10 11:45:24;;;;;;;14.07;4.60;;;;;;;;;;7302159;19;140619;-77
2023/07/10 11:47:52;;;;;;;13.80;4.68;;;;;;;;;;7301395;19;141144;-76
2023/07/10 11:50:23;;;;;;;13.77;4.68;;;;;;;;;;7301551;19;141415;-76
2023/07/10 11:53:08;;;;;;;11.63;4.80;;;;;;;;;;7302029;19;140447;-75
2023/07/10 11:55:53;;;;;;;11.95;4.50;;;;;;;;;;7301492;19;140681;-75
2023/07/10 11:58:29;;;;;;;12.60;4.57;;;;;;;;;;7301347;19;142088;-78
2023/07/10 12:00:58;;;;;;;11.82;4.80;;;;;;;;;;7303479;19;141224;-77
2023/07/10 12:03:25;;;;;;;14.23;4.95;;;;;;;;;;7300840;19;140659;-75
2023/07/10 12:05:52;;;;;;;10.45;4.15;;;;;;;;;;7301030;19;140510;-76
2023/07/10 12:08:23;;;;;;;9.40;4.03;;;;;;;;;;7300740;19;141181;-76
2023/07/10 12:10:50;;;;;;;12.02;4.53;;;;;;;;;;7301316;19;140703;-78
2023/07/10 12:13:20;;;;;;;10.93;4.18;;;;;;;;;;7301286;19;140518;-76
2023/07/10 12:15:49;;;;;;;11.93;4.50;;;;;;;;;;7299418;19;140422;-76
2023/07/10 12:18:34;;;;;;;11.18;4.03;;;;;;;;;;7300568;19;142411;-76
2023/07/10 12:21:03;;;;;;;9.75;4.00;;;;;;;;;;7299633;19;141960;-76
2023/07/10 12:23:30;;;;;;;11.35;4.30;;;;;;;;;;7300766;19;140589;-76
2023/07/10 12:25:59;;;;;;;10.15;4.07;;;;;;;;;;7300866;19;140694;-76
2023/07/10 12:28:26;;;;;;;9.77;4.18;;;;;;;;;;7301282;19;140661;-76
2023/07/10 12:30:57;;;;;;;9.57;4.10;;;;;;;;;;7299406;19;143096;-77
2023/07/10 12:33:33;;;;;;;7.60;4.00;;;;;;;;;;7301206;19;140637;-76
2023/07/10 12:36:05;;;;;;;7.30;3.78;;;;;;;;;;7301277;19;140776;-76
2023/07/10 12:38:33;;;;;;;7.88;3.55;;;;;;;;;;7300092;19;141830;-76
2023/07/10 12:41:01;;;;;;;8.98;3.58;;;;;;;;;;7300630;19;140923;-77
2023/07/10 12:43:29;;;;;;;8.30;3.80;;;;;;;;;;7300236;19;140565;-77
2023/07/10 12:45:56;;;;;;;8.35;3.38;;;;;;;;;;7299754;19;140668;-77
2023/07/10 12:48:25;;;;;;;9.10;4.30;;;;;;;;;;7299665;19;141274;-77
2023/07/10 12:50:53;;;;;;;8.00;3.70;;;;;;;;;;7299769;19;141804;-78
2023/07/10 12:53:21;;;;;;;6.82;3.58;;;;;;;;;;7300223;19;140746;-77
2023/07/10 12:55:50;;;;;;;7.60;3.75;;;;;;;;;;7299981;19;140552;-78
2023/07/10 12:58:34;;;;;;;9.20;3.90;;;;;;;;;;7299388;19;141543;-77
2023/07/10 13:01:03;;;;;;;9.18;3.50;;;;;;;;;;7299000;19;142546;-77
2023/07/10 13:03:31;;;;;;;8.00;3.63;;;;;;;;;;7300232;19;140486;-77
2023/07/10 13:06:05;;;;;;;8.07;3.72;;;;;;;;;;7297723;19;140692;-75
2023/07/10 13:08:35;;;;;;;8.27;3.97;;;;;;;;;;7299497;19;141615;-76
2023/07/10 13:11:03;;;;;;;7.47;4.00;;;;;;;;;;7299198;19;140866;-74
2023/07/10 13:13:34;;;;;;;8.18;3.40;;;;;;;;;;7299574;19;140412;-77
2023/07/10 13:16:03;;;;;;;7.32;3.78;;;;;;;;;;7298684;19;140551;-76
2023/07/10 13:18:32;;;;;;;8.63;3.50;;;;;;;;;;7299878;19;141132;-75
2023/07/10 13:20:59;;;;;;;6.63;3.50;;;;;;;;;;7305991;19;140944;-75
2023/07/10 13:23:26;;;;;;;6.80;3.42;;;;;;;;;;7306954;19;140573;-77
2023/07/10 13:25:55;;;;;;;4.25;2.95;;;;;;;;;;7306408;19;140799;-77
2023/07/10 13:28:24;;;;;;;7.65;3.53;;;;;;;;;;7305863;19;140809;-75
2023/07/10 13:31:11;;;;;;;6.30;3.20;;;;;;;;;;7305949;19;141288;-75
2023/07/10 13:33:38;;;;;;;6.15;3.30;;;;;;;;;;7304543;19;140720;-74
2023/07/10 13:36:21;;;;;;;7.43;3.58;;;;;;;;;;7306455;19;140686;-75
2023/07/10 13:38:48;;;;;;;6.30;3.30;;;;;;;;;;7307087;19;141678;-75
2023/07/10 13:41:16;;;;;;;7.97;3.83;;;;;;;;;;7305421;19;142426;-75
2023/07/10 13:43:43;;;;;;;7.07;3.65;;;;;;;;;;7306005;19;140571;-75
2023/07/10 13:46:30;;;;;;;6.85;3.38;;;;;;;;;;7305319;19;140626;-75
2023/07/10 13:49:04;;;;;;;6.47;3.50;;;;;;;;;;7306056;19;140505;-75
2023/07/10 13:51:32;;;;;;;5.78;3.30;;;;;;;;;;7305764;19;140780;-75
2023/07/10 13:54:00;;;;;;;6.55;3.40;;;;;;;;;;7307989;19;140517;-75
2023/07/10 13:56:30;;;;;;;7.22;3.38;;;;;;;;;;7305760;19;140644;-75
2023/07/10 13:58:58;;;;;;;6.80;3.25;;;;;;;;;;7305711;19;140583;-75
2023/07/10 14:01:25;;;;;;;7.13;3.38;;;;;;;;;;7303943;19;142202;-76
2023/07/10 14:03:55;;;;;;;5.63;3.03;;;;;;;;;;7305789;19;140335;-77
2023/07/10 14:06:22;;;;;;;5.75;2.92;;;;;;;;;;7305294;19;140742;-77
2023/07/10 14:08:50;;;;;;;6.68;3.22;;;;;;;;;;7304791;19;140946;-76
2023/07/10 14:11:18;;;;;;;6.97;3.20;;;;;;;;;;7305192;19;140792;-76
2023/07/10 14:13:46;;;;;;;7.15;2.95;;;;;;;;;;7304997;19;140817;-76
2023/07/10 14:16:15;;;;;;;5.28;2.90;;;;;;;;;;7303628;19;140527;-76
2023/07/10 14:18:42;;;;;;;5.65;3.28;;;;;;;;;;7304375;19;140946;-76
2023/07/10 14:21:13;;;;;;;5.28;3.10;;;;;;;;;;7304522;19;141894;-77
2023/07/10 14:23:41;;;;;;;4.90;3.15;;;;;;;;;;7304130;19;140409;-77
2023/07/10 14:26:13;;;;;;;5.20;3.17;;;;;;;;;;7304183;19;140568;-75
2023/07/10 14:28:40;;;;;;;4.88;2.88;;;;;;;;;;7302691;19;141953;-77
2023/07/10 14:31:13;;;;;;;6.63;3.05;;;;;;;;;;7303214;19;142062;-77
2023/07/10 14:33:40;;;;;;;4.40;2.85;;;;;;;;;;7304041;19;140386;-75
2023/07/10 14:36:18;;;;;;;4.25;2.63;;;;;;;;;;7303711;19;140493;-76
2023/07/10 14:38:45;;;;;;;4.88;2.83;;;;;;;;;;7304301;19;141720;-77
2023/07/10 14:41:14;;;;;;;6.70;2.90;;;;;;;;;;7303494;19;142044;-75